createdAt,value
2023-05-08T00:00:15.321Z,500.00
2023-05-08T00:01:15.284Z,500.00
2023-05-08T00:02:15.297Z,500.00
2023-05-08T00:03:15.443Z,434.00
2023-05-08T00:04:15.585Z,400.00
2023-05-08T00:05:15.287Z,400.00
2023-05-08T00:06:15.278Z,400.00
2023-05-08T00:07:15.281Z,400.00
2023-05-08T00:08:15.280Z,409.00
2023-05-08T00:09:15.285Z,435.00
2023-05-08T00:10:15.522Z,465.00
2023-05-08T00:11:16.164Z,490.00
2023-05-08T00:12:15.286Z,501.00
2023-05-08T00:13:15.508Z,501.00
2023-05-08T00:14:15.365Z,500.00
2023-05-08T00:15:15.379Z,500.00
2023-05-08T00:16:15.394Z,501.00
2023-05-08T00:17:15.389Z,501.00
2023-05-08T00:18:15.386Z,500.00
2023-05-08T00:19:15.375Z,500.00
2023-05-08T00:20:15.616Z,500.00
2023-05-08T00:21:15.386Z,502.00
2023-05-08T00:22:15.396Z,500.00
2023-05-08T00:23:15.415Z,502.00
2023-05-08T00:24:15.422Z,500.00
2023-05-08T00:25:15.444Z,502.00
2023-05-08T00:26:15.436Z,500.00
2023-05-08T00:27:15.460Z,501.00
2023-05-08T00:28:15.436Z,500.00
2023-05-08T00:29:15.453Z,503.00
2023-05-08T00:30:15.447Z,501.00
2023-05-08T00:31:15.449Z,501.00
2023-05-08T00:32:15.591Z,502.00
2023-05-08T00:33:15.590Z,500.00
2023-05-08T00:34:15.460Z,500.00
2023-05-08T00:35:15.472Z,505.00
2023-05-08T00:36:15.472Z,500.00
2023-05-08T00:37:15.467Z,502.00
2023-05-08T00:38:15.479Z,503.00
2023-05-08T00:39:15.466Z,504.00
2023-05-08T00:40:15.824Z,503.00
2023-05-08T00:41:15.490Z,504.00
2023-05-08T00:42:15.492Z,501.00
2023-05-08T00:43:15.491Z,501.00
2023-05-08T00:44:15.493Z,500.00
2023-05-08T00:45:15.539Z,501.00
2023-05-08T00:46:15.508Z,502.00
2023-05-08T00:47:15.489Z,502.00
2023-05-08T00:48:15.497Z,502.00
2023-05-08T00:49:15.492Z,503.00
2023-05-08T00:50:15.621Z,505.00
2023-05-08T00:51:15.509Z,502.00
2023-05-08T00:52:15.531Z,504.00
2023-05-08T00:53:15.528Z,502.00
2023-05-08T00:54:15.548Z,502.00
2023-05-08T00:55:15.533Z,504.00
2023-05-08T00:56:15.580Z,502.00
2023-05-08T00:57:15.524Z,504.00
2023-05-08T00:58:15.521Z,502.00
2023-05-08T00:59:15.543Z,500.00
2023-05-08T01:00:15.547Z,500.00
2023-05-08T01:01:15.601Z,502.00
2023-05-08T01:02:15.598Z,503.00
2023-05-08T01:03:15.677Z,504.00
2023-05-08T01:04:15.558Z,504.00
2023-05-08T01:05:15.569Z,502.00
2023-05-08T01:06:15.593Z,505.00
2023-05-08T01:07:15.578Z,508.00
2023-05-08T01:08:15.576Z,504.00
2023-05-08T01:09:15.576Z,501.00
2023-05-08T01:10:15.739Z,502.00
2023-05-08T01:11:15.607Z,506.00
2023-05-08T01:12:15.599Z,500.00
2023-05-08T01:13:15.668Z,503.00
2023-05-08T01:14:15.603Z,503.00
2023-05-08T01:15:15.613Z,502.00
2023-05-08T01:16:15.706Z,502.00
2023-05-08T01:17:15.665Z,505.00
2023-05-08T01:18:15.634Z,500.00
2023-05-08T01:19:15.640Z,506.00
2023-05-08T01:20:15.817Z,507.00
2023-05-08T01:21:15.665Z,503.00
2023-05-08T01:22:15.663Z,507.00
2023-05-08T01:23:15.673Z,509.00
2023-05-08T01:24:15.683Z,504.00
2023-05-08T01:25:15.703Z,505.00
2023-05-08T01:26:15.684Z,507.00
2023-05-08T01:27:15.683Z,506.00
2023-05-08T01:28:15.687Z,507.00
2023-05-08T01:29:15.698Z,505.00
2023-05-08T01:30:15.762Z,504.00
2023-05-08T01:31:15.733Z,508.00
2023-05-08T01:32:15.731Z,503.00
2023-05-08T01:33:15.820Z,506.00
2023-05-08T01:34:15.724Z,504.00
2023-05-08T01:35:15.727Z,502.00
2023-05-08T01:36:15.740Z,507.00
2023-05-08T01:37:15.735Z,509.00
2023-05-08T01:38:15.775Z,506.00
2023-05-08T01:39:15.748Z,509.00
2023-05-08T01:40:16.167Z,508.00
2023-05-08T01:41:15.751Z,505.00
2023-05-08T01:42:15.755Z,508.00
2023-05-08T01:43:15.759Z,507.00
2023-05-08T01:44:15.828Z,504.00
2023-05-08T01:45:15.794Z,509.00
2023-05-08T01:46:15.795Z,510.00
2023-05-08T01:47:15.761Z,510.00
2023-05-08T01:48:15.749Z,508.00
2023-05-08T01:49:15.796Z,507.00
2023-05-08T01:50:15.967Z,509.00
2023-05-08T01:51:15.756Z,504.00
2023-05-08T01:52:15.757Z,507.00
2023-05-08T01:53:15.789Z,505.00
2023-05-08T01:54:15.790Z,505.00
2023-05-08T01:55:15.808Z,508.00
2023-05-08T01:56:15.794Z,507.00
2023-05-08T01:57:15.795Z,509.00
2023-05-08T01:58:15.810Z,509.00
2023-05-08T01:59:15.824Z,507.00
2023-05-08T02:00:15.823Z,504.00
2023-05-08T02:01:15.863Z,509.00
2023-05-08T02:02:15.908Z,508.00
2023-05-08T02:03:15.953Z,506.00
2023-05-08T02:04:15.895Z,506.00
2023-05-08T02:05:15.901Z,506.00
2023-05-08T02:06:15.868Z,505.00
2023-05-08T02:07:15.894Z,504.00
2023-05-08T02:08:15.906Z,505.00
2023-05-08T02:09:15.938Z,507.00
2023-05-08T02:10:15.916Z,509.00
2023-05-08T02:11:15.918Z,505.00
2023-05-08T02:12:15.927Z,508.00
2023-05-08T02:13:15.992Z,506.00
2023-05-08T02:14:15.928Z,502.00
2023-05-08T02:15:15.934Z,502.00
2023-05-08T02:16:16.009Z,504.00
2023-05-08T02:17:15.960Z,506.00
2023-05-08T02:18:15.964Z,507.00
2023-05-08T02:19:15.969Z,501.00
2023-05-08T02:20:15.999Z,506.00
2023-05-08T02:21:16.010Z,503.00
2023-05-08T02:22:15.987Z,507.00
2023-05-08T02:23:16.000Z,506.00
2023-05-08T02:24:16.010Z,503.00
2023-05-08T02:25:16.026Z,503.00
2023-05-08T02:26:16.046Z,504.00
2023-05-08T02:27:16.032Z,502.00
2023-05-08T02:28:16.044Z,504.00
2023-05-08T02:29:16.051Z,502.00
2023-05-08T02:30:16.063Z,504.00
2023-05-08T02:31:16.073Z,502.00
2023-05-08T02:32:16.248Z,504.00
2023-05-08T02:33:16.131Z,503.00
2023-05-08T02:34:16.113Z,503.00
2023-05-08T02:35:16.124Z,504.00
2023-05-08T02:36:16.135Z,501.00
2023-05-08T02:37:16.165Z,501.00
2023-05-08T02:38:16.151Z,507.00
2023-05-08T02:39:16.170Z,501.00
2023-05-08T02:40:16.173Z,504.00
2023-05-08T02:41:16.180Z,505.00
2023-05-08T02:42:16.188Z,501.00
2023-05-08T02:43:16.209Z,503.00
2023-05-08T02:44:16.207Z,506.00
2023-05-08T02:45:16.221Z,507.00
2023-05-08T02:46:16.320Z,505.00
2023-05-08T02:47:16.259Z,503.00
2023-05-08T02:48:16.279Z,501.00
2023-05-08T02:49:16.291Z,507.00
2023-05-08T02:50:16.300Z,504.00
2023-05-08T02:51:16.308Z,505.00
2023-05-08T02:52:16.337Z,503.00
2023-05-08T02:53:16.352Z,505.00
2023-05-08T02:54:16.346Z,502.00
2023-05-08T02:55:16.349Z,503.00
2023-05-08T02:56:16.341Z,506.00
2023-05-08T02:57:16.336Z,501.00
2023-05-08T02:58:16.340Z,506.00
2023-05-08T02:59:16.361Z,505.00
2023-05-08T03:00:16.385Z,504.00
2023-05-08T03:01:16.393Z,506.00
2023-05-08T03:02:16.406Z,504.00
2023-05-08T03:03:16.512Z,505.00
2023-05-08T03:04:16.386Z,503.00
2023-05-08T03:05:16.395Z,503.00
2023-05-08T03:06:16.400Z,501.00
2023-05-08T03:07:16.441Z,503.00
2023-05-08T03:08:16.437Z,504.00
2023-05-08T03:09:16.473Z,503.00
2023-05-08T03:10:16.456Z,503.00
2023-05-08T03:11:16.465Z,501.00
2023-05-08T03:12:16.453Z,503.00
2023-05-08T03:13:16.511Z,507.00
2023-05-08T03:14:16.485Z,504.00
2023-05-08T03:15:16.499Z,501.00
2023-05-08T03:16:16.563Z,504.00
2023-05-08T03:17:16.526Z,505.00
2023-05-08T03:18:16.546Z,506.00
2023-05-08T03:19:16.560Z,500.00
2023-05-08T03:20:16.583Z,503.00
2023-05-08T03:21:16.589Z,500.00
2023-05-08T03:22:16.614Z,506.00
2023-05-08T03:23:16.616Z,505.00
2023-05-08T03:24:16.636Z,501.00
2023-05-08T03:25:16.686Z,501.00
2023-05-08T03:26:16.666Z,503.00
2023-05-08T03:27:16.681Z,503.00
2023-05-08T03:28:16.688Z,500.00
2023-05-08T03:29:16.704Z,510.00
2023-05-08T03:30:16.726Z,510.00
2023-05-08T03:31:16.809Z,505.00
2023-05-08T03:32:16.755Z,506.00
2023-05-08T03:33:16.772Z,507.00
2023-05-08T03:34:16.786Z,507.00
2023-05-08T03:35:16.804Z,507.00
2023-05-08T03:36:16.822Z,511.00
2023-05-08T03:37:16.853Z,507.00
2023-05-08T03:38:16.853Z,507.00
2023-05-08T03:39:16.873Z,512.00
2023-05-08T03:40:16.877Z,510.00
2023-05-08T03:41:16.915Z,506.00
2023-05-08T03:42:16.917Z,508.00
2023-05-08T03:43:16.988Z,506.00
2023-05-08T03:44:16.944Z,504.00
2023-05-08T03:45:16.958Z,507.00
2023-05-08T03:46:17.040Z,504.00
2023-05-08T03:47:16.973Z,502.00
2023-05-08T03:48:16.975Z,509.00
2023-05-08T03:49:16.991Z,507.00
2023-05-08T03:50:17.000Z,510.00
2023-05-08T03:51:17.037Z,508.00
2023-05-08T03:52:17.022Z,504.00
2023-05-08T03:53:17.043Z,509.00
2023-05-08T03:54:17.065Z,505.00
2023-05-08T03:55:17.082Z,507.00
2023-05-08T03:56:17.081Z,501.00
2023-05-08T03:57:17.146Z,505.00
2023-05-08T03:58:17.131Z,508.00
2023-05-08T03:59:17.149Z,511.00
2023-05-08T04:00:17.157Z,507.00
2023-05-08T04:01:17.163Z,509.00
2023-05-08T04:02:17.196Z,504.00
2023-05-08T04:03:17.303Z,509.00
2023-05-08T04:04:17.230Z,507.00
2023-05-08T04:05:17.191Z,507.00
2023-05-08T04:06:17.214Z,508.00
2023-05-08T04:07:17.219Z,508.00
2023-05-08T04:08:17.332Z,508.00
2023-05-08T04:09:17.254Z,514.00
2023-05-08T04:10:17.292Z,509.00
2023-05-08T04:11:17.347Z,508.00
2023-05-08T04:12:17.316Z,505.00
2023-05-08T04:13:17.395Z,506.00
2023-05-08T04:14:17.361Z,510.00
2023-05-08T04:15:17.383Z,512.00
2023-05-08T04:16:17.405Z,508.00
2023-05-08T04:17:17.381Z,507.00
2023-05-08T04:18:17.383Z,510.00
2023-05-08T04:19:17.413Z,504.00
2023-05-08T04:20:17.423Z,510.00
2023-05-08T04:21:17.446Z,509.00
2023-05-08T04:22:17.458Z,507.00
2023-05-08T04:23:17.474Z,504.00
2023-05-08T04:24:17.486Z,508.00
2023-05-08T04:25:17.510Z,505.00
2023-05-08T04:26:17.525Z,509.00
2023-05-08T04:27:17.550Z,509.00
2023-05-08T04:28:17.569Z,508.00
2023-05-08T04:29:17.606Z,504.00
2023-05-08T04:30:17.619Z,510.00
2023-05-08T04:31:17.651Z,509.00
2023-05-08T04:32:17.753Z,509.00
2023-05-08T04:33:17.663Z,507.00
2023-05-08T04:34:17.640Z,507.00
2023-05-08T04:35:17.658Z,507.00
2023-05-08T04:36:17.665Z,506.00
2023-05-08T04:37:17.680Z,508.00
2023-05-08T04:38:17.699Z,506.00
2023-05-08T04:39:17.720Z,508.00
2023-05-08T04:40:17.749Z,507.00
2023-05-08T04:41:17.785Z,508.00
2023-05-08T04:42:17.793Z,510.00
2023-05-08T04:43:17.807Z,505.00
2023-05-08T04:44:17.839Z,510.00
2023-05-08T04:45:17.873Z,508.00
2023-05-08T04:46:17.934Z,506.00
2023-05-08T04:47:17.927Z,507.00
2023-05-08T04:48:17.916Z,508.00
2023-05-08T04:49:17.933Z,508.00
2023-05-08T04:50:17.967Z,507.00
2023-05-08T04:51:17.987Z,507.00
2023-05-08T04:52:18.012Z,506.00
2023-05-08T04:53:18.023Z,508.00
2023-05-08T04:54:18.037Z,508.00
2023-05-08T04:55:18.058Z,504.00
2023-05-08T04:56:18.077Z,506.00
2023-05-08T04:57:18.110Z,504.00
2023-05-08T04:58:18.132Z,506.00
2023-05-08T04:59:18.168Z,509.00
2023-05-08T05:00:18.193Z,504.00
2023-05-08T05:01:18.281Z,505.00
2023-05-08T05:02:18.363Z,506.00
2023-05-08T05:03:18.284Z,504.00
2023-05-08T05:04:18.262Z,506.00
2023-05-08T05:05:18.298Z,503.00
2023-05-08T05:06:18.307Z,505.00
2023-05-08T05:07:18.304Z,510.00
2023-05-08T05:08:18.312Z,505.00
2023-05-08T05:09:18.333Z,509.00
2023-05-08T05:10:18.622Z,509.00
2023-05-08T05:11:18.375Z,507.00
2023-05-08T05:12:18.411Z,506.00
2023-05-08T05:13:18.481Z,506.00
2023-05-08T05:14:18.435Z,510.00
2023-05-08T05:15:18.468Z,506.00
2023-05-08T05:16:18.540Z,512.00
2023-05-08T05:17:18.522Z,508.00
2023-05-08T05:18:18.537Z,508.00
2023-05-08T05:19:19.245Z,506.00
2023-05-08T05:20:19.056Z,503.00
2023-05-08T05:21:18.589Z,512.00
2023-05-08T05:22:19.082Z,514.00
2023-05-08T05:23:18.631Z,511.00
2023-05-08T05:24:18.649Z,512.00
2023-05-08T05:25:18.667Z,513.00
2023-05-08T05:26:19.058Z,510.00
2023-05-08T05:27:21.191Z,510.00
2023-05-08T05:28:18.679Z,514.00
2023-05-08T05:29:18.670Z,513.00
2023-05-08T05:30:18.686Z,514.00
2023-05-08T05:31:18.681Z,512.00
2023-05-08T05:32:19.077Z,513.00
2023-05-08T05:33:18.685Z,515.00
2023-05-08T05:34:18.632Z,515.00
2023-05-08T05:35:18.637Z,511.00
2023-05-08T05:36:18.623Z,510.00
2023-05-08T05:37:19.058Z,512.00
2023-05-08T05:38:18.610Z,507.00
2023-05-08T05:39:18.612Z,508.00
2023-05-08T05:40:18.602Z,511.00
2023-05-08T05:41:18.602Z,512.00
2023-05-08T05:42:19.063Z,517.00
2023-05-08T05:43:18.581Z,508.00
2023-05-08T05:44:18.666Z,517.00
2023-05-08T05:45:19.068Z,515.00
2023-05-08T05:46:18.578Z,526.00
2023-05-08T05:47:18.659Z,520.00
2023-05-08T05:48:18.588Z,529.00
2023-05-08T05:49:18.562Z,546.00
2023-05-08T05:50:25.974Z,546.00
2023-05-08T05:51:21.725Z,547.00
2023-05-08T05:53:18.501Z,548.00
2023-05-08T05:54:21.691Z,552.00
2023-05-08T05:55:18.570Z,548.00
2023-05-08T05:56:18.501Z,549.00
2023-05-08T05:57:18.591Z,559.00
2023-05-08T05:58:18.586Z,572.00
2023-05-08T05:59:18.480Z,587.00
2023-05-08T06:00:18.489Z,588.00
2023-05-08T06:01:18.467Z,594.00
2023-05-08T06:03:18.631Z,603.00
2023-05-08T06:04:18.502Z,607.00
2023-05-08T06:06:18.464Z,604.00
2023-05-08T06:07:18.576Z,607.00
2023-05-08T06:09:18.392Z,604.00
2023-05-08T06:10:18.415Z,607.00
2023-05-08T06:11:18.380Z,609.00
2023-05-08T06:12:18.377Z,607.00
2023-05-08T06:13:18.432Z,610.00
2023-05-08T06:14:18.361Z,616.00
2023-05-08T06:15:18.356Z,614.00
2023-05-08T06:16:18.374Z,611.00
2023-05-08T06:17:18.351Z,613.00
2023-05-08T06:18:18.344Z,613.00
2023-05-08T06:19:18.345Z,611.00
2023-05-08T06:20:18.576Z,612.00
2023-05-08T06:21:18.324Z,612.00
2023-05-08T06:22:18.417Z,611.00
2023-05-08T06:23:18.304Z,613.00
2023-05-08T06:24:18.299Z,611.00
2023-05-08T06:25:18.317Z,610.00
2023-05-08T06:26:18.285Z,610.00
2023-05-08T06:27:18.284Z,614.00
2023-05-08T06:28:18.272Z,610.00
2023-05-08T06:29:18.292Z,612.00
2023-05-08T06:30:18.617Z,610.00
2023-05-08T06:31:18.345Z,611.00
2023-05-08T06:32:18.300Z,607.00
2023-05-08T06:33:18.247Z,606.00
2023-05-08T06:34:18.242Z,611.00
2023-05-08T06:35:18.610Z,613.00
2023-05-08T06:36:18.231Z,612.00
2023-05-08T06:37:18.213Z,610.00
2023-05-08T06:38:18.260Z,608.00
2023-05-08T06:39:18.203Z,613.00
2023-05-08T06:40:18.199Z,607.00
2023-05-08T06:41:18.264Z,610.00
2023-05-08T06:42:18.209Z,610.00
2023-05-08T06:43:18.174Z,609.00
2023-05-08T06:44:18.173Z,610.00
2023-05-08T06:45:19.583Z,616.00
2023-05-08T06:46:18.175Z,617.00
2023-05-08T06:47:18.601Z,611.00
2023-05-08T06:48:18.183Z,614.00
2023-05-08T06:49:18.142Z,618.00
2023-05-08T06:50:18.145Z,610.00
2023-05-08T06:51:18.132Z,611.00
2023-05-08T06:52:18.124Z,612.00
2023-05-08T06:53:18.298Z,613.00
2023-05-08T06:54:18.629Z,611.00
2023-05-08T06:55:18.184Z,612.00
2023-05-08T06:56:18.173Z,608.00
2023-05-08T06:57:18.606Z,611.00
2023-05-08T06:58:18.200Z,612.00
2023-05-08T06:59:18.209Z,613.00
2023-05-08T07:00:18.218Z,615.00
2023-05-08T07:01:18.242Z,609.00
2023-05-08T07:02:18.626Z,607.00
2023-05-08T07:03:18.235Z,608.00
2023-05-08T07:04:18.268Z,608.00
2023-05-08T07:05:18.523Z,614.00
2023-05-08T07:06:18.250Z,610.00
2023-05-08T07:07:18.264Z,608.00
2023-05-08T07:08:18.632Z,610.00
2023-05-08T07:09:18.287Z,612.00
2023-05-08T07:10:18.403Z,605.00
2023-05-08T07:11:18.267Z,607.00
2023-05-08T07:12:18.273Z,607.00
2023-05-08T07:13:18.647Z,615.00
2023-05-08T07:14:18.299Z,603.00
2023-05-08T07:16:18.333Z,609.00
2023-05-08T07:17:18.300Z,610.00
2023-05-08T07:18:18.600Z,610.00
2023-05-08T07:19:19.134Z,606.00
2023-05-08T07:20:18.323Z,609.00
2023-05-08T07:21:18.274Z,610.00
2023-05-08T07:22:21.473Z,610.00
2023-05-08T07:23:18.609Z,609.00
2023-05-08T07:24:18.253Z,610.00
2023-05-08T07:25:18.233Z,610.00
2023-05-08T07:26:18.345Z,611.00
2023-05-08T07:27:18.226Z,604.00
2023-05-08T07:28:18.605Z,610.00
2023-05-08T07:29:18.221Z,609.00
2023-05-08T07:30:18.258Z,608.00
2023-05-08T07:31:18.219Z,603.00
2023-05-08T07:32:18.209Z,603.00
2023-05-08T07:33:18.667Z,600.00
2023-05-08T07:34:18.185Z,602.00
2023-05-08T07:35:18.198Z,604.00
2023-05-08T07:37:25.560Z,613.00
2023-05-08T07:39:18.167Z,615.00
2023-05-08T07:40:18.146Z,623.00
2023-05-08T07:41:18.190Z,634.00
2023-05-08T07:42:18.319Z,648.00
2023-05-08T07:43:34.271Z,679.00
2023-05-08T07:44:18.653Z,615.00
2023-05-08T07:45:18.145Z,624.00
2023-05-08T07:46:18.185Z,640.00
2023-05-08T07:47:18.147Z,664.00
2023-05-08T07:48:18.116Z,747.00
2023-05-08T07:49:18.172Z,783.00
2023-05-08T07:50:18.089Z,828.00
2023-05-08T07:51:18.074Z,843.00
2023-05-08T07:52:18.083Z,851.00
2023-05-08T07:53:25.509Z,895.00
2023-05-08T07:54:18.113Z,897.00
2023-05-08T07:55:18.125Z,905.00
2023-05-08T07:57:18.539Z,898.00
2023-05-08T07:58:18.107Z,897.00
2023-05-08T07:59:18.114Z,904.00
2023-05-08T08:00:49.935Z,917.00
2023-05-08T08:01:18.333Z,899.00
2023-05-08T08:02:18.405Z,915.00
2023-05-08T08:03:18.065Z,931.00
2023-05-08T08:04:18.033Z,967.00
2023-05-08T08:05:18.405Z,1020.00
2023-05-08T08:06:17.993Z,1031.00
2023-05-08T08:07:17.966Z,1038.00
2023-05-08T08:08:18.117Z,1056.00
2023-05-08T08:09:49.762Z,1061.00
2023-05-08T08:10:17.940Z,1064.00
2023-05-08T08:11:49.774Z,1075.00
2023-05-08T08:12:17.957Z,1066.00
2023-05-08T08:13:18.164Z,1080.00
2023-05-08T08:14:18.249Z,1098.00
2023-05-08T08:15:18.123Z,1121.00
2023-05-08T08:16:17.954Z,1181.00
2023-05-08T08:17:18.057Z,1186.00
2023-05-08T08:18:17.988Z,1207.00
2023-05-08T08:19:18.154Z,1210.00
2023-05-08T08:20:19.171Z,1213.00
2023-05-08T08:21:17.875Z,1225.00
2023-05-08T08:22:17.861Z,1235.00
2023-05-08T08:23:17.863Z,1247.00
2023-05-08T08:24:17.854Z,1260.00
2023-05-08T08:25:18.120Z,1279.00
2023-05-08T08:26:17.939Z,1283.00
2023-05-08T08:27:17.971Z,1285.00
2023-05-08T08:28:18.019Z,1307.00
2023-05-08T08:29:18.138Z,1305.00
2023-05-08T08:30:18.916Z,1329.00
2023-05-08T08:31:18.167Z,1342.00
2023-05-08T08:32:18.159Z,1343.00
2023-05-08T08:33:19.174Z,1347.00
2023-05-08T08:34:18.270Z,1374.00
2023-05-08T08:35:18.455Z,1388.00
2023-05-08T08:36:18.280Z,1395.00
2023-05-08T08:37:18.321Z,1411.00
2023-05-08T08:38:18.388Z,1422.00
2023-05-08T08:39:18.376Z,1432.00
2023-05-08T08:40:18.701Z,1450.00
2023-05-08T08:41:21.700Z,1502.00
2023-05-08T08:42:18.475Z,1505.00
2023-05-08T08:43:18.475Z,1513.00
2023-05-08T08:44:21.656Z,1520.00
2023-05-08T08:45:18.655Z,1506.00
2023-05-08T08:46:18.587Z,1518.00
2023-05-08T08:47:18.410Z,1542.00
2023-05-08T08:48:18.394Z,1588.00
2023-05-08T08:49:18.643Z,1640.00
2023-05-08T08:50:18.406Z,1647.00
2023-05-08T08:51:18.381Z,1625.00
2023-05-08T08:52:18.398Z,1654.00
2023-05-08T08:53:18.360Z,1649.00
2023-05-08T08:54:18.664Z,1662.00
2023-05-08T08:55:18.671Z,1663.00
2023-05-08T08:56:18.351Z,1670.00
2023-05-08T08:57:18.333Z,1685.00
2023-05-08T08:58:19.632Z,1689.00
2023-05-08T08:59:18.327Z,1731.00
2023-05-08T09:00:18.331Z,1716.00
2023-05-08T09:01:18.426Z,1709.00
2023-05-08T09:02:18.556Z,1733.00
2023-05-08T09:03:18.374Z,1728.00
2023-05-08T09:04:18.357Z,1720.00
2023-05-08T09:05:18.297Z,1735.00
2023-05-08T09:06:18.318Z,1734.00
2023-05-08T09:07:18.332Z,1754.00
2023-05-08T09:08:18.344Z,1769.00
2023-05-08T09:09:18.378Z,1783.00
2023-05-08T09:10:18.687Z,1787.00
2023-05-08T09:11:19.236Z,1802.00
2023-05-08T09:12:18.443Z,1800.00
2023-05-08T09:14:17.483Z,1825.00
2023-05-08T09:15:18.539Z,1838.00
2023-05-08T09:16:18.756Z,1851.00
2023-05-08T09:17:18.557Z,1857.00
2023-05-08T09:18:18.694Z,1870.00
2023-05-08T09:19:18.613Z,1888.00
2023-05-08T09:20:18.624Z,1897.00
2023-05-08T09:21:18.636Z,1896.00
2023-05-08T09:22:18.645Z,1915.00
2023-05-08T09:23:18.668Z,1928.00
2023-05-08T09:24:18.664Z,1991.00
2023-05-08T09:25:18.691Z,1986.00
2023-05-08T09:26:19.163Z,1966.00
2023-05-08T09:27:18.713Z,1994.00
2023-05-08T09:28:18.729Z,1973.00
2023-05-08T09:29:18.724Z,1963.00
2023-05-08T09:30:19.305Z,1937.00
2023-05-08T09:31:19.238Z,1935.00
2023-05-08T09:32:18.866Z,1929.00
2023-05-08T09:33:19.157Z,1927.00
2023-05-08T09:34:18.898Z,1918.00
2023-05-08T09:35:18.765Z,1923.00
2023-05-08T09:36:19.157Z,1963.00
2023-05-08T09:37:18.818Z,1984.00
2023-05-08T09:38:18.836Z,2027.00
2023-05-08T09:39:18.835Z,2038.00
2023-05-08T09:40:18.868Z,2067.00
2023-05-08T09:41:19.163Z,2089.00
2023-05-08T09:42:18.883Z,2089.00
2023-05-08T09:43:19.112Z,2103.00
2023-05-08T09:44:18.915Z,2099.00
2023-05-08T09:45:19.381Z,2096.00
2023-05-08T09:46:19.028Z,2113.00
2023-05-08T09:47:18.955Z,2104.00
2023-05-08T09:48:20.165Z,2109.00
2023-05-08T09:49:18.943Z,2113.00
2023-05-08T09:50:19.120Z,2108.00
2023-05-08T09:51:19.160Z,2100.00
2023-05-08T09:52:18.978Z,2106.00
2023-05-08T09:53:19.169Z,2107.00
2023-05-08T09:54:19.006Z,2106.00
2023-05-08T09:55:19.002Z,2123.00
2023-05-08T09:56:19.167Z,2134.00
2023-05-08T09:57:19.036Z,2140.00
2023-05-08T09:58:19.059Z,2146.00
2023-05-08T09:59:19.154Z,2153.00
2023-05-08T10:00:19.138Z,2150.00
2023-05-08T10:01:19.292Z,2177.00
2023-05-08T10:02:19.130Z,2188.00
2023-05-08T10:03:19.102Z,2189.00
2023-05-08T10:04:19.104Z,2190.00
2023-05-08T10:05:19.157Z,2195.00
2023-05-08T10:06:19.299Z,2189.00
2023-05-08T10:07:19.125Z,2197.00
2023-05-08T10:08:19.126Z,2193.00
2023-05-08T10:09:19.186Z,2196.00
2023-05-08T10:10:19.162Z,2200.00
2023-05-08T10:11:19.173Z,2221.00
2023-05-08T10:12:19.166Z,2224.00
2023-05-08T10:13:19.269Z,2213.00
2023-05-08T10:14:19.182Z,2237.00
2023-05-08T10:15:19.182Z,2242.00
2023-05-08T10:16:19.284Z,2244.00
2023-05-08T10:17:19.908Z,2259.00
2023-05-08T10:18:19.901Z,2266.00
2023-05-08T10:19:19.459Z,2253.00
2023-05-08T10:20:21.364Z,2246.00
2023-05-08T10:21:19.692Z,2256.00
2023-05-08T10:22:19.454Z,2266.00
2023-05-08T10:23:19.394Z,2244.00
2023-05-08T10:24:35.802Z,2227.00
2023-05-08T10:25:19.428Z,2230.00
2023-05-08T10:26:19.719Z,2233.00
2023-05-08T10:27:19.367Z,2228.00
2023-05-08T10:28:19.290Z,2205.00
2023-05-08T10:29:19.326Z,2192.00
2023-05-08T10:30:19.254Z,2182.00
2023-05-08T10:31:19.789Z,2168.00
2023-05-08T10:32:19.676Z,2161.00
2023-05-08T10:33:19.253Z,2149.00
2023-05-08T10:34:19.235Z,2142.00
2023-05-08T10:35:19.222Z,2128.00
2023-05-08T10:36:19.687Z,2124.00
2023-05-08T10:37:19.206Z,2131.00
2023-05-08T10:38:19.826Z,2116.00
2023-05-08T10:39:19.179Z,2113.00
2023-05-08T10:40:19.185Z,2106.00
2023-05-08T10:41:20.193Z,2107.00
2023-05-08T10:42:19.167Z,2101.00
2023-05-08T10:43:19.157Z,2087.00
2023-05-08T10:44:19.792Z,2089.00
2023-05-08T10:45:19.148Z,2071.00
2023-05-08T10:46:19.226Z,2085.00
2023-05-08T10:47:19.133Z,2063.00
2023-05-08T10:48:19.130Z,2063.00
2023-05-08T10:49:19.129Z,2052.00
2023-05-08T10:50:19.174Z,2050.00
2023-05-08T10:51:19.690Z,2035.00
2023-05-08T10:52:20.796Z,2034.00
2023-05-08T10:53:19.694Z,2043.00
2023-05-08T10:54:19.428Z,2024.00
2023-05-08T10:55:19.441Z,2029.00
2023-05-08T10:56:19.485Z,2027.00
2023-05-08T10:57:19.537Z,2034.00
2023-05-08T10:58:19.687Z,2044.00
2023-05-08T10:59:19.749Z,2044.00
2023-05-08T11:00:19.636Z,2027.00
2023-05-08T11:01:19.839Z,2034.00
2023-05-08T11:02:19.739Z,2021.00
2023-05-08T11:03:30.479Z,2021.00
2023-05-08T11:04:19.821Z,2022.00
2023-05-08T11:05:19.765Z,2025.00
2023-05-08T11:06:20.198Z,2019.00
2023-05-08T11:07:19.720Z,2008.00
2023-05-08T11:08:19.722Z,2011.00
2023-05-08T11:09:19.730Z,1997.00
2023-05-08T11:10:20.245Z,1999.00
2023-05-08T11:11:19.695Z,1995.00
2023-05-08T11:12:19.691Z,1994.00
2023-05-08T11:13:19.729Z,1964.00
2023-05-08T11:14:19.697Z,1972.00
2023-05-08T11:15:19.704Z,1977.00
2023-05-08T11:16:19.732Z,1952.00
2023-05-08T11:17:19.661Z,1953.00
2023-05-08T11:18:19.665Z,1952.00
2023-05-08T11:19:19.658Z,1936.00
2023-05-08T11:20:19.667Z,1929.00
2023-05-08T11:21:19.704Z,1932.00
2023-05-08T11:22:19.630Z,1944.00
2023-05-08T11:23:22.958Z,1926.00
2023-05-08T11:24:19.806Z,1927.00
2023-05-08T11:25:19.607Z,1926.00
2023-05-08T11:26:19.617Z,1906.00
2023-05-08T11:27:19.590Z,1891.00
2023-05-08T11:28:19.702Z,1886.00
2023-05-08T11:29:19.702Z,1896.00
2023-05-08T11:30:19.560Z,1909.00
2023-05-08T11:31:19.620Z,1913.00
2023-05-08T11:32:19.567Z,1903.00
2023-05-08T11:33:20.217Z,1892.00
2023-05-08T11:34:26.924Z,1889.00
2023-05-08T11:36:19.520Z,1893.00
2023-05-08T11:37:20.235Z,1899.00
2023-05-08T11:38:19.500Z,1904.00
2023-05-08T11:39:19.488Z,1902.00
2023-05-08T11:40:19.490Z,1901.00
2023-05-08T11:41:19.498Z,1890.00
2023-05-08T11:42:19.731Z,1886.00
2023-05-08T11:43:19.491Z,1869.00
2023-05-08T11:44:19.456Z,1850.00
2023-05-08T11:45:19.449Z,1851.00
2023-05-08T11:46:19.465Z,1856.00
2023-05-08T11:47:19.545Z,1855.00
2023-05-08T11:48:19.424Z,1845.00
2023-05-08T11:49:23.832Z,1835.00
2023-05-08T11:50:19.412Z,1837.00
2023-05-08T11:51:19.414Z,1841.00
2023-05-08T11:52:19.409Z,1838.00
2023-05-08T11:53:19.401Z,1830.00
2023-05-08T11:54:20.768Z,1824.00
2023-05-08T11:55:19.395Z,1845.00
2023-05-08T11:56:19.376Z,1820.00
2023-05-08T11:57:19.472Z,1815.00
2023-05-08T11:58:19.550Z,1804.00
2023-05-08T11:59:19.715Z,1807.00
2023-05-08T12:00:19.689Z,1804.00
2023-05-08T12:01:19.679Z,1775.00
2023-05-08T12:02:19.747Z,1772.00
2023-05-08T12:03:23.239Z,1772.00
2023-05-08T12:04:20.510Z,1773.00
2023-05-08T12:05:19.803Z,1773.00
2023-05-08T12:06:20.780Z,1776.00
2023-05-08T12:07:20.226Z,1758.00
2023-05-08T12:08:22.993Z,1750.00
2023-05-08T12:09:19.782Z,1772.00
2023-05-08T12:10:19.844Z,1758.00
2023-05-08T12:11:19.782Z,1737.00
2023-05-08T12:12:20.218Z,1733.00
2023-05-08T12:13:19.854Z,1730.00
2023-05-08T12:14:19.756Z,1714.00
2023-05-08T12:15:19.770Z,1716.00
2023-05-08T12:16:19.768Z,1704.00
2023-05-08T12:17:20.399Z,1700.00
2023-05-08T12:18:19.933Z,1700.00
2023-05-08T12:19:20.118Z,1706.00
2023-05-08T12:20:20.381Z,1687.00
2023-05-08T12:21:20.288Z,1692.00
2023-05-08T12:22:19.988Z,1685.00
2023-05-08T12:23:19.973Z,1680.00
2023-05-08T12:24:20.200Z,1683.00
2023-05-08T12:25:20.114Z,1670.00
2023-05-08T12:26:20.928Z,1662.00
2023-05-08T12:27:20.006Z,1671.00
2023-05-08T12:28:20.178Z,1669.00
2023-05-08T12:29:19.967Z,1666.00
2023-05-08T12:30:20.404Z,1656.00